sensor_id;sensor_type;location;lat;lon;timestamp;P1;durP1;ratioP1;P2;durP2;ratioP2
73421;SDS011;61637;47.760;-122.022;2023-07-08T00:00:09;10.0;;;3.3;;
73421;SDS011;61637;47.760;-122.022;2023-07-08T00:02:01;10.0;;;3.3;;
73421;SDS011;61637;47.760;-122.022;2023-07-08T00:04:01;9.5;;;3.1;;
73421;SDS011;61637;47.760;-122.022;2023-07-08T00:06:01;8.5;;;2.9;;
73421;SDS011;61637;47.760;-122.022;2023-07-08T00:08:02;7.8;;;3.0;;
73421;SDS011;61637;47.760;-122.022;2023-07-08T00:10:01;10.4;;;3.0;;
73421;SDS011;61637;47.760;-122.022;2023-07-08T00:12:01;10.1;;;3.0;;
73421;SDS011;61637;47.760;-122.022;2023-07-08T00:14:01;11.2;;;3.1;;
73421;SDS011;61637;47.760;-122.022;2023-07-08T00:16:01;9.1;;;3.1;;
73421;SDS011;61637;47.760;-122.022;2023-07-08T00:18:08;10.0;;;3.0;;
73421;SDS011;61637;47.760;-122.022;2023-07-08T00:20:01;7.9;;;2.9;;
73421;SDS011;61637;47.760;-122.022;2023-07-08T00:22:01;9.7;;;3.0;;
73421;SDS011;61637;47.760;-122.022;2023-07-08T00:24:01;7.6;;;2.9;;
73421;SDS011;61637;47.760;-122.022;2023-07-08T00:26:04;8.7;;;3.0;;
73421;SDS011;61637;47.760;-122.022;2023-07-08T00:28:02;9.5;;;2.8;;
73421;SDS011;61637;47.760;-122.022;2023-07-08T00:30:04;8.7;;;3.1;;
73421;SDS011;61637;47.760;-122.022;2023-07-08T00:32:01;9.2;;;3.0;;
73421;SDS011;61637;47.760;-122.022;2023-07-08T00:34:01;10.6;;;3.0;;
73421;SDS011;61637;47.760;-122.022;2023-07-08T00:36:01;7.9;;;2.9;;
73421;SDS011;61637;47.760;-122.022;2023-07-08T00:38:04;8.4;;;2.8;;
73421;SDS011;61637;47.760;-122.022;2023-07-08T00:40:01;9.2;;;2.9;;
73421;SDS011;61637;47.760;-122.022;2023-07-08T00:42:01;8.7;;;2.6;;
73421;SDS011;61637;47.760;-122.022;2023-07-08T00:44:02;8.8;;;2.8;;
73421;SDS011;61637;47.760;-122.022;2023-07-08T00:46:13;8.0;;;2.7;;
73421;SDS011;61637;47.760;-122.022;2023-07-08T00:48:11;10.1;;;2.7;;
73421;SDS011;61637;47.760;-122.022;2023-07-08T00:50:04;7.6;;;2.8;;
73421;SDS011;61637;47.760;-122.022;2023-07-08T00:52:20;7.3;;;2.5;;
73421;SDS011;61637;47.760;-122.022;2023-07-08T00:54:01;8.5;;;2.8;;
73421;SDS011;61637;47.760;-122.022;2023-07-08T00:56:05;7.3;;;2.6;;
73421;SDS011;61637;47.760;-122.022;2023-07-08T00:58:01;7.7;;;2.4;;
73421;SDS011;61637;47.760;-122.022;2023-07-08T01:00:05;7.1;;;2.3;;
73421;SDS011;61637;47.760;-122.022;2023-07-08T01:02:05;6.9;;;2.4;;
73421;SDS011;61637;47.760;-122.022;2023-07-08T01:04:04;6.5;;;2.5;;
73421;SDS011;61637;47.760;-122.022;2023-07-08T01:06:01;8.4;;;2.4;;
73421;SDS011;61637;47.760;-122.022;2023-07-08T01:08:03;7.3;;;2.2;;
73421;SDS011;61637;47.760;-122.022;2023-07-08T01:10:04;9.9;;;2.3;;
73421;SDS011;61637;47.760;-122.022;2023-07-08T01:12:04;7.7;;;2.4;;
73421;SDS011;61637;47.760;-122.022;2023-07-08T01:14:02;6.8;;;2.4;;
73421;SDS011;61637;47.760;-122.022;2023-07-08T01:16:01;7.7;;;2.3;;
73421;SDS011;61637;47.760;-122.022;2023-07-08T01:18:02;6.4;;;2.0;;
73421;SDS011;61637;47.760;-122.022;2023-07-08T01:20:03;7.0;;;2.2;;
73421;SDS011;61637;47.760;-122.022;2023-07-08T01:22:03;8.2;;;2.2;;
73421;SDS011;61637;47.760;-122.022;2023-07-08T01:24:04;8.6;;;2.2;;
73421;SDS011;61637;47.760;-122.022;2023-07-08T01:26:02;9.8;;;2.2;;
73421;SDS011;61637;47.760;-122.022;2023-07-08T01:28:01;8.3;;;2.2;;
73421;SDS011;61637;47.760;-122.022;2023-07-08T01:30:03;7.7;;;2.4;;
73421;SDS011;61637;47.760;-122.022;2023-07-08T01:32:01;5.9;;;2.2;;
73421;SDS011;61637;47.760;-122.022;2023-07-08T01:34:02;6.9;;;2.3;;
73421;SDS011;61637;47.760;-122.022;2023-07-08T01:36:02;5.7;;;2.0;;
73421;SDS011;61637;47.760;-122.022;2023-07-08T01:38:03;6.2;;;2.2;;
73421;SDS011;61637;47.760;-122.022;2023-07-08T01:40:16;7.8;;;2.4;;
73421;SDS011;61637;47.760;-122.022;2023-07-08T01:42:01;7.1;;;2.3;;
73421;SDS011;61637;47.760;-122.022;2023-07-08T01:44:01;6.5;;;2.0;;
73421;SDS011;61637;47.760;-122.022;2023-07-08T01:46:02;7.8;;;2.3;;
73421;SDS011;61637;47.760;-122.022;2023-07-08T01:48:05;6.5;;;2.2;;
73421;SDS011;61637;47.760;-122.022;2023-07-08T01:50:02;6.0;;;2.1;;
73421;SDS011;61637;47.760;-122.022;2023-07-08T01:52:02;5.6;;;2.0;;
73421;SDS011;61637;47.760;-122.022;2023-07-08T01:54:01;7.1;;;2.1;;
73421;SDS011;61637;47.760;-122.022;2023-07-08T01:56:02;6.8;;;2.2;;
73421;SDS011;61637;47.760;-122.022;2023-07-08T01:58:01;5.7;;;1.8;;
73421;SDS011;61637;47.760;-122.022;2023-07-08T02:00:02;6.7;;;1.9;;
73421;SDS011;61637;47.760;-122.022;2023-07-08T02:02:01;7.6;;;2.2;;
73421;SDS011;61637;47.760;-122.022;2023-07-08T02:04:01;5.5;;;2.0;;
73421;SDS011;61637;47.760;-122.022;2023-07-08T02:06:01;6.1;;;1.7;;
73421;SDS011;61637;47.760;-122.022;2023-07-08T02:08:01;7.4;;;2.1;;
73421;SDS011;61637;47.760;-122.022;2023-07-08T02:10:01;6.9;;;2.0;;
73421;SDS011;61637;47.760;-122.022;2023-07-08T02:12:01;10.0;;;2.1;;
73421;SDS011;61637;47.760;-122.022;2023-07-08T02:14:01;5.2;;;1.8;;
73421;SDS011;61637;47.760;-122.022;2023-07-08T02:16:01;6.4;;;1.8;;
73421;SDS011;61637;47.760;-122.022;2023-07-08T02:18:01;5.6;;;1.9;;
73421;SDS011;61637;47.760;-122.022;2023-07-08T02:20:01;6.8;;;1.9;;
73421;SDS011;61637;47.760;-122.022;2023-07-08T02:22:01;6.7;;;2.0;;
73421;SDS011;61637;47.760;-122.022;2023-07-08T02:24:01;5.8;;;1.9;;
73421;SDS011;61637;47.760;-122.022;2023-07-08T02:26:01;7.0;;;1.9;;
73421;SDS011;61637;47.760;-122.022;2023-07-08T02:28:02;6.7;;;1.8;;
73421;SDS011;61637;47.760;-122.022;2023-07-08T02:30:01;8.1;;;1.9;;
73421;SDS011;61637;47.760;-122.022;2023-07-08T02:32:01;11.1;;;1.9;;
73421;SDS011;61637;47.760;-122.022;2023-07-08T02:34:01;7.5;;;1.8;;
73421;SDS011;61637;47.760;-122.022;2023-07-08T02:36:02;7.4;;;1.8;;
73421;SDS011;61637;47.760;-122.022;2023-07-08T02:38:02;5.2;;;1.8;;
73421;SDS011;61637;47.760;-122.022;2023-07-08T02:40:01;7.0;;;2.0;;
73421;SDS011;61637;47.760;-122.022;2023-07-08T02:42:01;6.8;;;1.8;;
73421;SDS011;61637;47.760;-122.022;2023-07-08T02:44:01;7.3;;;2.1;;
73421;SDS011;61637;47.760;-122.022;2023-07-08T02:46:01;5.9;;;1.8;;
73421;SDS011;61637;47.760;-122.022;2023-07-08T02:48:01;6.6;;;1.9;;
73421;SDS011;61637;47.760;-122.022;2023-07-08T02:50:01;6.0;;;1.9;;
73421;SDS011;61637;47.760;-122.022;2023-07-08T02:52:01;7.3;;;2.0;;
73421;SDS011;61637;47.760;-122.022;2023-07-08T02:54:01;7.2;;;1.9;;
73421;SDS011;61637;47.760;-122.022;2023-07-08T02:56:01;6.4;;;1.9;;
73421;SDS011;61637;47.760;-122.022;2023-07-08T02:58:01;8.6;;;2.0;;
73421;SDS011;61637;47.760;-122.022;2023-07-08T03:00:02;6.6;;;2.0;;
73421;SDS011;61637;47.760;-122.022;2023-07-08T03:02:01;8.6;;;1.8;;
73421;SDS011;61637;47.760;-122.022;2023-07-08T03:04:01;9.0;;;1.9;;
73421;SDS011;61637;47.760;-122.022;2023-07-08T03:06:03;8.4;;;1.9;;
73421;SDS011;61637;47.760;-122.022;2023-07-08T03:08:01;6.3;;;1.9;;
73421;SDS011;61637;47.760;-122.022;2023-07-08T03:10:01;6.6;;;1.9;;
73421;SDS011;61637;47.760;-122.022;2023-07-08T03:12:01;5.8;;;1.9;;
73421;SDS011;61637;47.760;-122.022;2023-07-08T03:14:01;7.3;;;1.7;;
73421;SDS011;61637;47.760;-122.022;2023-07-08T03:16:04;8.5;;;1.9;;
73421;SDS011;61637;47.760;-122.022;2023-07-08T03:18:01;7.5;;;1.9;;
73421;SDS011;61637;47.760;-122.022;2023-07-08T03:20:01;7.1;;;1.8;;
73421;SDS011;61637;47.760;-122.022;2023-07-08T03:22:01;5.7;;;1.7;;
73421;SDS011;61637;47.760;-122.022;2023-07-08T03:24:01;7.9;;;1.9;;
73421;SDS011;61637;47.760;-122.022;2023-07-08T03:26:01;7.5;;;1.9;;
73421;SDS011;61637;47.760;-122.022;2023-07-08T03:28:01;9.5;;;2.1;;
73421;SDS011;61637;47.760;-122.022;2023-07-08T03:30:01;10.3;;;2.1;;
73421;SDS011;61637;47.760;-122.022;2023-07-08T03:32:01;9.5;;;2.2;;
73421;SDS011;61637;47.760;-122.022;2023-07-08T03:34:01;7.4;;;2.0;;
73421;SDS011;61637;47.760;-122.022;2023-07-08T03:36:02;7.1;;;1.9;;
73421;SDS011;61637;47.760;-122.022;2023-07-08T03:38:02;8.6;;;2.1;;
73421;SDS011;61637;47.760;-122.022;2023-07-08T03:40:01;6.9;;;1.8;;
73421;SDS011;61637;47.760;-122.022;2023-07-08T03:42:01;7.0;;;1.8;;
73421;SDS011;61637;47.760;-122.022;2023-07-08T03:44:01;6.3;;;2.0;;
73421;SDS011;61637;47.760;-122.022;2023-07-08T03:46:01;7.5;;;2.0;;
73421;SDS011;61637;47.760;-122.022;2023-07-08T03:48:01;9.9;;;2.1;;
73421;SDS011;61637;47.760;-122.022;2023-07-08T03:50:01;8.9;;;2.0;;
73421;SDS011;61637;47.760;-122.022;2023-07-08T03:52:01;6.3;;;2.0;;
73421;SDS011;61637;47.760;-122.022;2023-07-08T03:54:02;6.6;;;1.7;;
73421;SDS011;61637;47.760;-122.022;2023-07-08T03:56:01;7.9;;;1.9;;
73421;SDS011;61637;47.760;-122.022;2023-07-08T03:58:02;7.8;;;2.2;;
73421;SDS011;61637;47.760;-122.022;2023-07-08T04:00:01;7.6;;;2.2;;
73421;SDS011;61637;47.760;-122.022;2023-07-08T04:02:02;8.6;;;2.3;;
73421;SDS011;61637;47.760;-122.022;2023-07-08T04:04:01;7.4;;;2.0;;
73421;SDS011;61637;47.760;-122.022;2023-07-08T04:06:01;6.5;;;2.0;;
73421;SDS011;61637;47.760;-122.022;2023-07-08T04:08:01;7.8;;;2.2;;
73421;SDS011;61637;47.760;-122.022;2023-07-08T04:10:01;10.6;;;2.3;;
73421;SDS011;61637;47.760;-122.022;2023-07-08T04:12:01;8.1;;;2.1;;
73421;SDS011;61637;47.760;-122.022;2023-07-08T04:14:02;7.8;;;2.2;;
73421;SDS011;61637;47.760;-122.022;2023-07-08T04:16:04;7.0;;;2.1;;
73421;SDS011;61637;47.760;-122.022;2023-07-08T04:18:01;7.6;;;2.2;;
73421;SDS011;61637;47.760;-122.022;2023-07-08T04:20:01;7.1;;;2.3;;
73421;SDS011;61637;47.760;-122.022;2023-07-08T04:22:02;7.4;;;2.3;;
73421;SDS011;61637;47.760;-122.022;2023-07-08T04:24:01;5.4;;;2.0;;
73421;SDS011;61637;47.760;-122.022;2023-07-08T04:26:01;10.5;;;2.2;;
73421;SDS011;61637;47.760;-122.022;2023-07-08T04:28:01;9.6;;;2.2;;
73421;SDS011;61637;47.760;-122.022;2023-07-08T04:30:01;10.0;;;2.2;;
73421;SDS011;61637;47.760;-122.022;2023-07-08T04:32:01;6.4;;;2.3;;
73421;SDS011;61637;47.760;-122.022;2023-07-08T04:34:01;6.8;;;2.2;;
73421;SDS011;61637;47.760;-122.022;2023-07-08T04:36:02;8.1;;;2.3;;
73421;SDS011;61637;47.760;-122.022;2023-07-08T04:38:01;5.9;;;2.3;;
73421;SDS011;61637;47.760;-122.022;2023-07-08T04:40:01;9.0;;;2.3;;
73421;SDS011;61637;47.760;-122.022;2023-07-08T04:42:01;11.5;;;2.5;;
73421;SDS011;61637;47.760;-122.022;2023-07-08T04:44:01;8.4;;;2.6;;
73421;SDS011;61637;47.760;-122.022;2023-07-08T04:46:02;9.4;;;2.3;;
73421;SDS011;61637;47.760;-122.022;2023-07-08T04:48:01;9.4;;;2.3;;
73421;SDS011;61637;47.760;-122.022;2023-07-08T04:50:01;7.0;;;2.3;;
73421;SDS011;61637;47.760;-122.022;2023-07-08T04:52:01;7.2;;;2.4;;
73421;SDS011;61637;47.760;-122.022;2023-07-08T04:54:02;8.0;;;2.8;;
73421;SDS011;61637;47.760;-122.022;2023-07-08T04:56:01;7.4;;;2.5;;
73421;SDS011;61637;47.760;-122.022;2023-07-08T04:58:01;8.3;;;2.6;;
73421;SDS011;61637;47.760;-122.022;2023-07-08T05:00:01;8.7;;;2.7;;
73421;SDS011;61637;47.760;-122.022;2023-07-08T05:02:01;7.7;;;2.6;;
73421;SDS011;61637;47.760;-122.022;2023-07-08T05:04:02;7.5;;;2.7;;
73421;SDS011;61637;47.760;-122.022;2023-07-08T05:06:01;8.5;;;2.7;;
73421;SDS011;61637;47.760;-122.022;2023-07-08T05:08:01;7.2;;;2.6;;
73421;SDS011;61637;47.760;-122.022;2023-07-08T05:10:01;9.8;;;2.8;;
73421;SDS011;61637;47.760;-122.022;2023-07-08T05:12:02;8.9;;;2.7;;
73421;SDS011;61637;47.760;-122.022;2023-07-08T05:14:01;8.9;;;2.6;;
73421;SDS011;61637;47.760;-122.022;2023-07-08T05:16:01;8.6;;;2.8;;
73421;SDS011;61637;47.760;-122.022;2023-07-08T05:18:02;7.7;;;2.7;;
73421;SDS011;61637;47.760;-122.022;2023-07-08T05:20:01;8.8;;;2.8;;
73421;SDS011;61637;47.760;-122.022;2023-07-08T05:22:01;8.6;;;2.6;;
73421;SDS011;61637;47.760;-122.022;2023-07-08T05:24:02;8.4;;;2.6;;
73421;SDS011;61637;47.760;-122.022;2023-07-08T05:26:02;9.7;;;2.7;;
73421;SDS011;61637;47.760;-122.022;2023-07-08T05:28:01;7.8;;;2.5;;
73421;SDS011;61637;47.760;-122.022;2023-07-08T05:30:01;9.6;;;2.8;;
73421;SDS011;61637;47.760;-122.022;2023-07-08T05:32:01;7.9;;;2.4;;
73421;SDS011;61637;47.760;-122.022;2023-07-08T05:34:01;10.5;;;2.7;;
73421;SDS011;61637;47.760;-122.022;2023-07-08T05:36:01;10.9;;;2.6;;
73421;SDS011;61637;47.760;-122.022;2023-07-08T05:38:02;9.9;;;2.6;;
73421;SDS011;61637;47.760;-122.022;2023-07-08T05:40:01;8.2;;;2.6;;
73421;SDS011;61637;47.760;-122.022;2023-07-08T05:42:01;8.7;;;2.3;;
73421;SDS011;61637;47.760;-122.022;2023-07-08T05:44:01;10.8;;;2.5;;
73421;SDS011;61637;47.760;-122.022;2023-07-08T05:46:02;12.2;;;2.7;;
73421;SDS011;61637;47.760;-122.022;2023-07-08T05:48:01;11.4;;;2.9;;
73421;SDS011;61637;47.760;-122.022;2023-07-08T05:50:01;11.7;;;2.7;;
73421;SDS011;61637;47.760;-122.022;2023-07-08T05:52:01;11.0;;;2.8;;
73421;SDS011;61637;47.760;-122.022;2023-07-08T05:54:01;9.3;;;2.4;;
73421;SDS011;61637;47.760;-122.022;2023-07-08T05:56:02;7.8;;;2.5;;
73421;SDS011;61637;47.760;-122.022;2023-07-08T05:58:01;9.1;;;2.6;;
73421;SDS011;61637;47.760;-122.022;2023-07-08T06:00:01;8.4;;;2.2;;
73421;SDS011;61637;47.760;-122.022;2023-07-08T06:02:02;6.8;;;2.3;;
73421;SDS011;61637;47.760;-122.022;2023-07-08T06:04:01;10.6;;;2.6;;
73421;SDS011;61637;47.760;-122.022;2023-07-08T06:06:01;8.9;;;2.2;;
73421;SDS011;61637;47.760;-122.022;2023-07-08T06:08:01;9.6;;;2.5;;
73421;SDS011;61637;47.760;-122.022;2023-07-08T06:10:01;8.6;;;2.4;;
73421;SDS011;61637;47.760;-122.022;2023-07-08T06:12:02;7.4;;;2.3;;
73421;SDS011;61637;47.760;-122.022;2023-07-08T06:14:01;8.2;;;2.6;;
73421;SDS011;61637;47.760;-122.022;2023-07-08T06:16:01;7.8;;;2.4;;
73421;SDS011;61637;47.760;-122.022;2023-07-08T06:18:01;8.0;;;2.8;;
73421;SDS011;61637;47.760;-122.022;2023-07-08T06:20:01;9.0;;;2.4;;
73421;SDS011;61637;47.760;-122.022;2023-07-08T06:22:01;10.3;;;2.4;;
73421;SDS011;61637;47.760;-122.022;2023-07-08T06:24:02;8.1;;;2.0;;
73421;SDS011;61637;47.760;-122.022;2023-07-08T06:26:01;6.3;;;2.0;;
73421;SDS011;61637;47.760;-122.022;2023-07-08T06:28:01;7.6;;;2.3;;
73421;SDS011;61637;47.760;-122.022;2023-07-08T06:30:01;6.7;;;2.0;;
73421;SDS011;61637;47.760;-122.022;2023-07-08T06:32:02;9.2;;;2.4;;
73421;SDS011;61637;47.760;-122.022;2023-07-08T06:34:01;8.4;;;2.2;;
73421;SDS011;61637;47.760;-122.022;2023-07-08T06:36:01;8.4;;;2.2;;
73421;SDS011;61637;47.760;-122.022;2023-07-08T06:38:01;6.5;;;2.1;;
73421;SDS011;61637;47.760;-122.022;2023-07-08T06:40:01;6.7;;;2.0;;
73421;SDS011;61637;47.760;-122.022;2023-07-08T06:42:01;6.4;;;2.1;;
73421;SDS011;61637;47.760;-122.022;2023-07-08T06:44:01;7.0;;;2.1;;
73421;SDS011;61637;47.760;-122.022;2023-07-08T06:46:01;6.8;;;2.0;;
73421;SDS011;61637;47.760;-122.022;2023-07-08T06:48:02;6.7;;;1.9;;
73421;SDS011;61637;47.760;-122.022;2023-07-08T06:50:02;8.7;;;2.1;;
73421;SDS011;61637;47.760;-122.022;2023-07-08T06:52:01;5.2;;;1.9;;
73421;SDS011;61637;47.760;-122.022;2023-07-08T06:54:02;5.8;;;1.8;;
73421;SDS011;61637;47.760;-122.022;2023-07-08T06:56:01;7.3;;;2.0;;
73421;SDS011;61637;47.760;-122.022;2023-07-08T06:58:01;8.3;;;2.1;;
73421;SDS011;61637;47.760;-122.022;2023-07-08T07:00:01;7.7;;;2.1;;
73421;SDS011;61637;47.760;-122.022;2023-07-08T07:02:01;8.2;;;2.0;;
73421;SDS011;61637;47.760;-122.022;2023-07-08T07:04:01;8.0;;;2.1;;
73421;SDS011;61637;47.760;-122.022;2023-07-08T07:06:01;6.5;;;1.9;;
73421;SDS011;61637;47.760;-122.022;2023-07-08T07:08:01;9.2;;;2.0;;
73421;SDS011;61637;47.760;-122.022;2023-07-08T07:10:02;6.6;;;2.1;;
73421;SDS011;61637;47.760;-122.022;2023-07-08T07:12:01;9.9;;;2.0;;
73421;SDS011;61637;47.760;-122.022;2023-07-08T07:14:01;7.3;;;1.8;;
73421;SDS011;61637;47.760;-122.022;2023-07-08T07:16:01;6.5;;;1.9;;
73421;SDS011;61637;47.760;-122.022;2023-07-08T07:18:01;6.4;;;1.8;;
73421;SDS011;61637;47.760;-122.022;2023-07-08T07:20:01;5.7;;;1.6;;
73421;SDS011;61637;47.760;-122.022;2023-07-08T07:22:02;6.4;;;2.0;;
73421;SDS011;61637;47.760;-122.022;2023-07-08T07:24:01;6.2;;;1.7;;
73421;SDS011;61637;47.760;-122.022;2023-07-08T07:26:01;5.2;;;1.8;;
73421;SDS011;61637;47.760;-122.022;2023-07-08T07:28:01;5.3;;;1.9;;
73421;SDS011;61637;47.760;-122.022;2023-07-08T07:30:01;7.1;;;1.7;;
73421;SDS011;61637;47.760;-122.022;2023-07-08T07:32:01;7.2;;;1.7;;
73421;SDS011;61637;47.760;-122.022;2023-07-08T07:34:01;6.8;;;1.8;;
73421;SDS011;61637;47.760;-122.022;2023-07-08T07:36:01;5.5;;;1.7;;
73421;SDS011;61637;47.760;-122.022;2023-07-08T07:38:02;5.2;;;1.7;;
73421;SDS011;61637;47.760;-122.022;2023-07-08T07:40:01;7.1;;;1.8;;
73421;SDS011;61637;47.760;-122.022;2023-07-08T07:42:01;6.4;;;1.9;;
73421;SDS011;61637;47.760;-122.022;2023-07-08T07:44:01;6.3;;;2.0;;
73421;SDS011;61637;47.760;-122.022;2023-07-08T07:46:01;5.2;;;1.6;;
73421;SDS011;61637;47.760;-122.022;2023-07-08T07:48:01;5.2;;;1.6;;
73421;SDS011;61637;47.760;-122.022;2023-07-08T07:50:02;7.0;;;1.8;;
73421;SDS011;61637;47.760;-122.022;2023-07-08T07:52:02;6.0;;;1.9;;
73421;SDS011;61637;47.760;-122.022;2023-07-08T07:54:01;5.4;;;1.8;;
73421;SDS011;61637;47.760;-122.022;2023-07-08T07:56:02;5.7;;;1.6;;
73421;SDS011;61637;47.760;-122.022;2023-07-08T07:58:01;5.9;;;1.5;;
73421;SDS011;61637;47.760;-122.022;2023-07-08T08:00:02;8.8;;;1.6;;
73421;SDS011;61637;47.760;-122.022;2023-07-08T08:02:01;6.6;;;1.5;;
73421;SDS011;61637;47.760;-122.022;2023-07-08T08:04:01;6.0;;;1.7;;
73421;SDS011;61637;47.760;-122.022;2023-07-08T08:06:01;4.5;;;1.4;;
73421;SDS011;61637;47.760;-122.022;2023-07-08T08:08:01;5.6;;;1.5;;
73421;SDS011;61637;47.760;-122.022;2023-07-08T08:10:01;5.0;;;1.4;;
73421;SDS011;61637;47.760;-122.022;2023-07-08T08:12:02;5.8;;;1.6;;
73421;SDS011;61637;47.760;-122.022;2023-07-08T08:14:01;7.9;;;1.5;;
73421;SDS011;61637;47.760;-122.022;2023-07-08T08:16:02;7.1;;;1.7;;
73421;SDS011;61637;47.760;-122.022;2023-07-08T08:18:02;4.8;;;1.7;;
73421;SDS011;61637;47.760;-122.022;2023-07-08T08:20:01;5.4;;;1.6;;
73421;SDS011;61637;47.760;-122.022;2023-07-08T08:22:01;5.2;;;2.0;;
73421;SDS011;61637;47.760;-122.022;2023-07-08T08:24:02;6.1;;;1.9;;
73421;SDS011;61637;47.760;-122.022;2023-07-08T08:26:01;4.5;;;1.4;;
73421;SDS011;61637;47.760;-122.022;2023-07-08T08:28:01;6.2;;;1.7;;
73421;SDS011;61637;47.760;-122.022;2023-07-08T08:30:04;5.5;;;1.5;;
73421;SDS011;61637;47.760;-122.022;2023-07-08T08:32:01;6.3;;;1.7;;
73421;SDS011;61637;47.760;-122.022;2023-07-08T08:34:01;4.8;;;1.5;;
73421;SDS011;61637;47.760;-122.022;2023-07-08T08:36:01;4.7;;;1.4;;
73421;SDS011;61637;47.760;-122.022;2023-07-08T08:38:01;4.6;;;1.6;;
73421;SDS011;61637;47.760;-122.022;2023-07-08T08:40:01;5.0;;;1.4;;
73421;SDS011;61637;47.760;-122.022;2023-07-08T08:42:01;6.5;;;1.4;;
73421;SDS011;61637;47.760;-122.022;2023-07-08T08:44:04;6.7;;;1.5;;
73421;SDS011;61637;47.760;-122.022;2023-07-08T08:46:05;5.8;;;1.7;;
73421;SDS011;61637;47.760;-122.022;2023-07-08T08:48:04;5.3;;;1.4;;
73421;SDS011;61637;47.760;-122.022;2023-07-08T08:50:05;4.8;;;1.6;;
73421;SDS011;61637;47.760;-122.022;2023-07-08T08:52:01;5.2;;;1.6;;
73421;SDS011;61637;47.760;-122.022;2023-07-08T08:54:01;5.6;;;1.5;;
73421;SDS011;61637;47.760;-122.022;2023-07-08T08:56:09;6.0;;;1.5;;
73421;SDS011;61637;47.760;-122.022;2023-07-08T08:58:06;5.2;;;1.6;;
73421;SDS011;61637;47.760;-122.022;2023-07-08T09:00:02;4.5;;;1.4;;
73421;SDS011;61637;47.760;-122.022;2023-07-08T09:02:18;4.7;;;1.4;;
73421;SDS011;61637;47.760;-122.022;2023-07-08T09:04:05;5.5;;;1.5;;
73421;SDS011;61637;47.760;-122.022;2023-07-08T09:06:09;3.9;;;1.3;;
73421;SDS011;61637;47.760;-122.022;2023-07-08T09:08:12;4.4;;;1.4;;
73421;SDS011;61637;47.760;-122.022;2023-07-08T09:10:08;4.0;;;1.4;;
73421;SDS011;61637;47.760;-122.022;2023-07-08T09:12:04;3.8;;;1.3;;
73421;SDS011;61637;47.760;-122.022;2023-07-08T09:14:01;4.5;;;1.4;;
73421;SDS011;61637;47.760;-122.022;2023-07-08T09:16:06;6.3;;;1.6;;
73421;SDS011;61637;47.760;-122.022;2023-07-08T09:18:14;5.0;;;1.4;;
73421;SDS011;61637;47.760;-122.022;2023-07-08T09:20:13;4.9;;;1.5;;
73421;SDS011;61637;47.760;-122.022;2023-07-08T09:22:06;5.7;;;1.4;;
73421;SDS011;61637;47.760;-122.022;2023-07-08T09:24:09;5.2;;;1.3;;
73421;SDS011;61637;47.760;-122.022;2023-07-08T09:26:06;4.9;;;1.4;;
73421;SDS011;61637;47.760;-122.022;2023-07-08T09:28:02;6.4;;;1.3;;
73421;SDS011;61637;47.760;-122.022;2023-07-08T09:30:01;4.4;;;1.4;;
73421;SDS011;61637;47.760;-122.022;2023-07-08T09:32:13;4.9;;;1.5;;
73421;SDS011;61637;47.760;-122.022;2023-07-08T09:34:07;5.1;;;1.6;;
73421;SDS011;61637;47.760;-122.022;2023-07-08T09:36:01;5.1;;;1.6;;
73421;SDS011;61637;47.760;-122.022;2023-07-08T09:38:07;6.9;;;1.4;;
73421;SDS011;61637;47.760;-122.022;2023-07-08T09:40:09;6.9;;;1.4;;
73421;SDS011;61637;47.760;-122.022;2023-07-08T09:42:07;5.9;;;1.6;;
73421;SDS011;61637;47.760;-122.022;2023-07-08T09:44:06;5.9;;;1.6;;
73421;SDS011;61637;47.760;-122.022;2023-07-08T09:46:02;6.4;;;1.5;;
73421;SDS011;61637;47.760;-122.022;2023-07-08T09:48:01;4.6;;;1.4;;
73421;SDS011;61637;47.760;-122.022;2023-07-08T09:50:04;4.9;;;1.3;;
73421;SDS011;61637;47.760;-122.022;2023-07-08T09:52:03;6.1;;;1.4;;
73421;SDS011;61637;47.760;-122.022;2023-07-08T09:54:01;4.1;;;1.3;;
73421;SDS011;61637;47.760;-122.022;2023-07-08T09:56:04;5.5;;;1.5;;
73421;SDS011;61637;47.760;-122.022;2023-07-08T09:58:01;5.5;;;1.3;;
73421;SDS011;61637;47.760;-122.022;2023-07-08T10:00:07;4.2;;;1.4;;
73421;SDS011;61637;47.760;-122.022;2023-07-08T10:02:02;4.4;;;1.4;;
73421;SDS011;61637;47.760;-122.022;2023-07-08T10:04:01;6.3;;;1.5;;
73421;SDS011;61637;47.760;-122.022;2023-07-08T10:06:06;5.2;;;1.4;;
73421;SDS011;61637;47.760;-122.022;2023-07-08T10:08:03;4.9;;;1.3;;
73421;SDS011;61637;47.760;-122.022;2023-07-08T10:10:06;4.2;;;1.3;;
73421;SDS011;61637;47.760;-122.022;2023-07-08T10:12:04;3.6;;;1.2;;
73421;SDS011;61637;47.760;-122.022;2023-07-08T10:14:05;4.6;;;1.4;;
73421;SDS011;61637;47.760;-122.022;2023-07-08T10:16:11;3.9;;;1.2;;
73421;SDS011;61637;47.760;-122.022;2023-07-08T10:18:02;4.3;;;1.4;;
73421;SDS011;61637;47.760;-122.022;2023-07-08T10:20:01;3.8;;;1.3;;
73421;SDS011;61637;47.760;-122.022;2023-07-08T10:22:15;3.9;;;1.3;;
73421;SDS011;61637;47.760;-122.022;2023-07-08T10:24:20;5.5;;;1.4;;
73421;SDS011;61637;47.760;-122.022;2023-07-08T10:26:08;4.2;;;1.3;;
73421;SDS011;61637;47.760;-122.022;2023-07-08T10:28:16;3.9;;;1.2;;
73421;SDS011;61637;47.760;-122.022;2023-07-08T10:30:11;4.2;;;1.2;;
73421;SDS011;61637;47.760;-122.022;2023-07-08T10:32:08;4.4;;;1.2;;
73421;SDS011;61637;47.760;-122.022;2023-07-08T10:34:16;5.3;;;1.3;;
73421;SDS011;61637;47.760;-122.022;2023-07-08T10:36:13;3.5;;;1.2;;
73421;SDS011;61637;47.760;-122.022;2023-07-08T10:38:09;3.5;;;1.3;;
73421;SDS011;61637;47.760;-122.022;2023-07-08T10:40:16;3.9;;;1.2;;
73421;SDS011;61637;47.760;-122.022;2023-07-08T10:42:09;5.0;;;1.3;;
73421;SDS011;61637;47.760;-122.022;2023-07-08T10:44:06;4.2;;;1.2;;
73421;SDS011;61637;47.760;-122.022;2023-07-08T10:46:09;4.3;;;1.2;;
73421;SDS011;61637;47.760;-122.022;2023-07-08T10:48:14;4.3;;;1.3;;
73421;SDS011;61637;47.760;-122.022;2023-07-08T10:50:16;4.1;;;1.1;;
73421;SDS011;61637;47.760;-122.022;2023-07-08T10:52:07;4.0;;;1.3;;
73421;SDS011;61637;47.760;-122.022;2023-07-08T10:54:13;3.7;;;1.2;;
73421;SDS011;61637;47.760;-122.022;2023-07-08T10:56:11;5.8;;;1.4;;
73421;SDS011;61637;47.760;-122.022;2023-07-08T10:58:20;4.5;;;1.2;;
73421;SDS011;61637;47.760;-122.022;2023-07-08T11:00:12;4.9;;;1.4;;
73421;SDS011;61637;47.760;-122.022;2023-07-08T11:02:17;6.1;;;1.3;;
73421;SDS011;61637;47.760;-122.022;2023-07-08T11:04:10;4.6;;;1.4;;
73421;SDS011;61637;47.760;-122.022;2023-07-08T11:06:06;4.2;;;1.3;;
73421;SDS011;61637;47.760;-122.022;2023-07-08T11:08:08;4.5;;;1.3;;
73421;SDS011;61637;47.760;-122.022;2023-07-08T11:10:05;5.1;;;1.4;;
73421;SDS011;61637;47.760;-122.022;2023-07-08T11:12:08;5.2;;;1.2;;
73421;SDS011;61637;47.760;-122.022;2023-07-08T11:14:06;4.7;;;1.3;;
73421;SDS011;61637;47.760;-122.022;2023-07-08T11:16:05;4.5;;;1.2;;
73421;SDS011;61637;47.760;-122.022;2023-07-08T11:18:06;5.5;;;1.2;;
73421;SDS011;61637;47.760;-122.022;2023-07-08T11:20:10;6.4;;;1.4;;
73421;SDS011;61637;47.760;-122.022;2023-07-08T11:22:05;5.0;;;1.3;;
73421;SDS011;61637;47.760;-122.022;2023-07-08T11:24:05;3.9;;;1.3;;
73421;SDS011;61637;47.760;-122.022;2023-07-08T11:26:09;3.4;;;1.3;;
73421;SDS011;61637;47.760;-122.022;2023-07-08T11:28:04;4.2;;;1.4;;
73421;SDS011;61637;47.760;-122.022;2023-07-08T11:30:06;4.4;;;1.3;;
73421;SDS011;61637;47.760;-122.022;2023-07-08T11:32:02;4.5;;;1.6;;
73421;SDS011;61637;47.760;-122.022;2023-07-08T11:34:03;4.7;;;1.3;;
73421;SDS011;61637;47.760;-122.022;2023-07-08T11:36:02;3.3;;;1.1;;
73421;SDS011;61637;47.760;-122.022;2023-07-08T11:38:02;4.4;;;1.3;;
73421;SDS011;61637;47.760;-122.022;2023-07-08T11:40:07;3.8;;;1.3;;
73421;SDS011;61637;47.760;-122.022;2023-07-08T11:42:14;6.0;;;1.4;;
73421;SDS011;61637;47.760;-122.022;2023-07-08T11:44:04;3.7;;;1.3;;
73421;SDS011;61637;47.760;-122.022;2023-07-08T11:46:05;6.2;;;1.4;;
73421;SDS011;61637;47.760;-122.022;2023-07-08T11:48:09;5.6;;;1.3;;
73421;SDS011;61637;47.760;-122.022;2023-07-08T11:50:02;4.0;;;1.2;;